Terminal Aerodrome Forecast
Issued by NWS

Home | Current Version | Previous Version | Text Only | Print | Product List | Glossary On
Versions: 1 2 3 4 5 6 7 8 9 10 11 12 13 14 15 16 17 18 19 20 21 22 23 24 25
000
FTUS44 KEWX 192300
TAFSSF
TAF
KSSF 192320Z 2000/2024 09010KT P6SM BKN120
     FM200400 10004KT P6SM BKN010
     FM201000 VRB03KT 3SM BR OVC007
     FM201600 09006KT P6SM BKN025=

USA.gov is the U.S. government's official web portal to all federal, state and local government web resources and services.